createdAt,value
2017-11-22T00:00:15.346Z,99257.99
2017-11-22T00:02:42.845Z,99256.30
2017-11-22T00:05:10.367Z,99254.77
2017-11-22T00:07:37.923Z,99249.13
2017-11-22T00:10:05.385Z,99260.47
2017-11-22T00:12:33.987Z,99256.95
2017-11-22T00:15:01.463Z,99258.30
2017-11-22T00:17:28.961Z,99253.66
2017-11-22T00:19:56.441Z,99265.58
2017-11-22T00:22:23.927Z,99264.46
2017-11-22T00:24:52.319Z,99267.92
2017-11-22T00:27:19.813Z,99264.84
2017-11-22T00:29:47.315Z,99268.67
2017-11-22T00:32:15.901Z,99264.73
2017-11-22T00:34:43.368Z,99260.15
2017-11-22T00:37:10.869Z,99256.69
2017-11-22T00:39:38.306Z,99256.70
2017-11-22T00:42:05.789Z,99263.89
2017-11-22T00:44:34.108Z,99266.11
2017-11-22T00:47:01.575Z,99263.94
2017-11-22T00:49:29.047Z,99262.98
2017-11-22T00:51:56.554Z,99269.90
2017-11-22T00:54:24.017Z,99273.84
2017-11-22T00:56:51.482Z,99261.80
2017-11-22T00:59:19.021Z,99264.36
2017-11-22T01:01:46.481Z,99255.16
2017-11-22T01:04:14.402Z,99257.74
2017-11-22T01:06:42.585Z,99259.51
2017-11-22T01:09:10.034Z,99259.94
2017-11-22T01:11:37.515Z,99260.88
2017-11-22T01:14:05.019Z,99254.97
2017-11-22T01:16:36.393Z,99249.38
2017-11-22T01:19:03.864Z,99257.57
2017-11-22T01:21:31.978Z,99256.83
2017-11-22T01:23:59.432Z,99246.19
2017-11-22T01:26:26.888Z,99238.98
2017-11-22T01:28:54.348Z,99240.69
2017-11-22T01:31:21.796Z,99247.07
2017-11-22T01:33:49.244Z,99237.56
2017-11-22T01:36:16.729Z,99234.67
2017-11-22T01:38:44.184Z,99233.12
2017-11-22T01:41:11.632Z,99227.59
2017-11-22T01:43:39.090Z,99219.83
2017-11-22T01:46:06.618Z,99220.24
2017-11-22T01:48:34.093Z,99222.47
2017-11-22T01:51:01.541Z,99218.36
2017-11-22T01:53:29.050Z,99214.45
2017-11-22T01:55:56.604Z,99214.01
2017-11-22T01:58:24.044Z,99207.63
2017-11-22T02:00:53.553Z,99206.67
2017-11-22T02:03:21.016Z,99215.89
2017-11-22T02:05:48.504Z,99221.95
2017-11-22T02:08:16.600Z,99222.70
2017-11-22T02:10:44.057Z,99212.39
2017-11-22T02:13:11.515Z,99217.48
2017-11-22T02:15:39.001Z,99214.34
2017-11-22T02:18:06.482Z,99216.53
2017-11-22T02:20:35.829Z,99228.41
2017-11-22T02:23:03.296Z,99233.16
2017-11-22T02:25:30.752Z,99221.64
2017-11-22T02:27:58.209Z,99227.66
2017-11-22T02:30:28.335Z,99231.93
2017-11-22T02:32:55.790Z,99221.00
2017-11-22T02:35:23.233Z,99226.07
2017-11-22T02:37:50.684Z,99232.88
2017-11-22T02:40:18.136Z,99221.75
2017-11-22T02:42:45.707Z,99223.94
2017-11-22T02:45:13.190Z,99232.94
2017-11-22T02:47:40.642Z,99225.22
2017-11-22T02:50:08.090Z,99224.79
2017-11-22T02:52:35.934Z,99235.50
2017-11-22T02:55:03.398Z,99236.83
2017-11-22T02:57:30.885Z,99239.00
2017-11-22T02:59:58.452Z,99242.09
2017-11-22T03:02:25.892Z,99245.92
2017-11-22T03:04:53.394Z,99236.87
2017-11-22T03:07:20.848Z,99241.02
2017-11-22T03:09:48.284Z,99248.42
2017-11-22T03:12:15.768Z,99256.20
2017-11-22T03:14:43.223Z,99237.34
2017-11-22T03:17:10.668Z,99238.15
2017-11-22T03:19:38.144Z,99239.53
2017-11-22T03:22:05.578Z,99239.75
2017-11-22T03:24:33.056Z,99237.73
2017-11-22T03:27:00.511Z,99243.48
2017-11-22T03:29:27.959Z,99231.71
2017-11-22T03:31:55.406Z,99236.06
2017-11-22T03:34:22.878Z,99245.71
2017-11-22T03:36:50.568Z,99242.58
2017-11-22T03:39:18.141Z,99243.05
2017-11-22T03:41:45.604Z,99248.75
2017-11-22T03:44:13.172Z,99255.94
2017-11-22T03:46:40.651Z,99248.76
2017-11-22T03:49:08.888Z,99248.60
2017-11-22T03:51:41.849Z,99252.87
2017-11-22T03:54:09.377Z,99243.16
2017-11-22T03:56:36.834Z,99241.50
2017-11-22T03:59:04.306Z,99246.47
2017-11-22T04:01:46.368Z,99242.10
2017-11-22T04:04:16.349Z,99247.95
2017-11-22T04:06:44.073Z,99242.48
2017-11-22T04:09:11.545Z,99251.84
2017-11-22T04:11:39.153Z,99243.64
2017-11-22T04:14:06.625Z,99247.23
2017-11-22T04:16:35.403Z,99250.75
2017-11-22T04:19:08.528Z,99242.60
2017-11-22T04:21:36.068Z,99226.91
2017-11-22T04:24:03.609Z,99236.09
2017-11-22T04:26:33.991Z,99234.92
2017-11-22T04:29:01.444Z,99226.96
2017-11-22T04:31:28.927Z,99231.15
2017-11-22T04:33:56.381Z,99233.17
2017-11-22T04:36:24.172Z,99223.42
2017-11-22T04:38:51.660Z,99231.08
2017-11-22T04:41:19.124Z,99237.30
2017-11-22T04:43:46.641Z,99228.54
2017-11-22T04:46:14.236Z,99224.34
2017-11-22T04:48:41.767Z,99238.95
2017-11-22T04:51:09.224Z,99224.94
2017-11-22T04:53:36.697Z,99229.09
2017-11-22T04:56:04.169Z,99229.14
2017-11-22T04:58:31.660Z,99242.41
2017-11-22T05:00:59.155Z,99231.55
2017-11-22T05:03:26.601Z,99230.05
2017-11-22T05:05:54.132Z,99231.28
2017-11-22T05:08:21.596Z,99226.89
2017-11-22T05:10:49.048Z,99221.36
2017-11-22T05:13:16.551Z,99226.11
2017-11-22T05:15:44.056Z,99227.69
2017-11-22T05:18:11.605Z,99230.98
2017-11-22T05:20:39.131Z,99234.98
2017-11-22T05:23:06.594Z,99228.96
2017-11-22T05:25:34.047Z,99233.28
2017-11-22T05:28:01.517Z,99233.23
2017-11-22T05:30:29.017Z,99245.23
2017-11-22T05:32:56.493Z,99256.98
2017-11-22T05:35:23.969Z,99240.30
2017-11-22T05:37:51.432Z,99243.33
2017-11-22T05:40:18.888Z,99242.01
2017-11-22T05:42:47.169Z,99270.93
2017-11-22T05:45:15.537Z,99242.36
2017-11-22T05:47:42.978Z,99239.45
2017-11-22T05:50:10.509Z,99245.30
2017-11-22T05:52:37.953Z,99252.86
2017-11-22T05:55:05.413Z,99242.67
2017-11-22T05:57:32.862Z,99246.20
2017-11-22T06:00:00.616Z,99251.39
2017-11-22T06:02:28.102Z,99245.35
2017-11-22T06:04:55.600Z,99242.05
2017-11-22T06:07:23.059Z,99242.48
2017-11-22T06:09:50.561Z,99238.58
2017-11-22T06:12:18.039Z,99242.37
2017-11-22T06:14:45.484Z,99234.75
2017-11-22T06:17:12.948Z,99230.75
2017-11-22T06:19:40.473Z,99234.64
2017-11-22T06:22:07.933Z,99229.52
2017-11-22T06:24:35.420Z,99229.34
2017-11-22T06:27:02.873Z,99232.28
2017-11-22T06:29:30.368Z,99233.50
2017-11-22T06:31:57.824Z,99236.59
2017-11-22T06:34:25.764Z,99254.02
2017-11-22T06:36:53.250Z,99228.80
2017-11-22T06:39:24.505Z,99222.89
2017-11-22T06:41:51.992Z,99229.28
2017-11-22T06:44:19.456Z,99247.13
2017-11-22T06:46:46.917Z,99229.52
2017-11-22T06:49:14.396Z,99251.30
2017-11-22T06:51:41.830Z,99235.45
2017-11-22T06:54:09.291Z,99236.22
2017-11-22T06:56:37.048Z,99235.31
2017-11-22T06:59:05.170Z,99226.97
2017-11-22T07:01:32.653Z,99238.55
2017-11-22T07:04:00.117Z,99243.55
2017-11-22T07:06:28.865Z,99242.22
2017-11-22T07:08:56.390Z,99233.17
2017-11-22T07:11:23.846Z,99239.16
2017-11-22T07:13:51.309Z,99242.80
2017-11-22T07:16:24.299Z,99226.88
2017-11-22T07:18:51.969Z,99225.41
2017-11-22T07:21:19.429Z,99227.88
2017-11-22T07:23:46.907Z,99249.55
2017-11-22T07:26:14.366Z,99236.23
2017-11-22T07:28:41.835Z,99228.28
2017-11-22T07:31:09.288Z,99231.98
2017-11-22T07:33:36.732Z,99227.64
2017-11-22T07:36:09.789Z,99236.47
2017-11-22T07:38:37.358Z,99232.13
2017-11-22T07:41:04.824Z,99233.39
2017-11-22T07:43:32.328Z,99235.91
2017-11-22T07:45:59.953Z,99243.88
2017-11-22T07:48:27.577Z,99238.22
2017-11-22T07:50:58.653Z,99235.17
2017-11-22T07:53:26.109Z,99242.45
2017-11-22T07:55:53.581Z,99246.57
2017-11-22T07:58:21.839Z,99250.75
2017-11-22T08:00:49.389Z,99255.70
2017-11-22T08:03:22.544Z,99250.14
2017-11-22T08:05:50.012Z,99246.00
2017-11-22T08:08:17.508Z,99247.00
2017-11-22T08:10:44.961Z,99252.84
2017-11-22T08:13:12.422Z,99249.06
2017-11-22T08:15:39.890Z,99252.99
2017-11-22T08:18:07.338Z,99253.23
2017-11-22T08:20:34.915Z,99249.85
2017-11-22T08:23:02.363Z,99269.47
2017-11-22T08:25:29.826Z,99257.81
2017-11-22T08:27:57.297Z,99264.36
2017-11-22T08:30:24.862Z,99264.70
2017-11-22T08:32:52.350Z,99277.01
2017-11-22T08:35:19.812Z,99280.46
2017-11-22T08:37:47.252Z,99274.54
2017-11-22T08:40:15.681Z,99276.53
2017-11-22T08:42:43.153Z,99279.00
2017-11-22T08:45:10.619Z,99274.98
2017-11-22T08:47:38.684Z,99287.90
2017-11-22T08:50:06.203Z,99282.09
2017-11-22T08:52:33.886Z,99282.19
2017-11-22T08:55:07.227Z,99281.78
2017-11-22T08:57:40.339Z,99286.34
2017-11-22T09:00:13.298Z,99279.45
2017-11-22T09:02:44.565Z,99289.04
2017-11-22T09:05:12.032Z,99292.89
2017-11-22T09:07:39.494Z,99291.80
2017-11-22T09:10:06.998Z,99299.17
2017-11-22T09:12:40.051Z,99299.70
2017-11-22T09:15:09.107Z,99298.17
2017-11-22T09:17:36.578Z,99302.45
2017-11-22T09:20:05.916Z,99305.91
2017-11-22T09:22:34.497Z,99310.41
2017-11-22T09:25:06.366Z,99314.78
2017-11-22T09:27:39.434Z,99306.27
2017-11-22T09:30:12.674Z,99315.41
2017-11-22T09:32:40.199Z,99316.61
2017-11-22T09:35:07.653Z,99324.76
2017-11-22T09:37:35.115Z,99335.70
2017-11-22T09:40:02.608Z,99327.14
2017-11-22T09:42:30.246Z,99325.73
2017-11-22T09:44:57.704Z,99321.33
2017-11-22T09:47:25.189Z,99327.15
2017-11-22T09:49:52.644Z,99332.91
2017-11-22T09:52:20.102Z,99326.61
2017-11-22T09:54:47.577Z,99327.98
2017-11-22T09:57:15.961Z,99333.06
2017-11-22T09:59:43.413Z,99321.85
2017-11-22T10:02:10.870Z,99326.53
2017-11-22T10:04:38.340Z,99327.90
2017-11-22T10:07:05.816Z,99309.38
2017-11-22T10:09:33.311Z,99306.13
2017-11-22T10:12:01.012Z,99309.73
2017-11-22T10:14:28.478Z,99305.86
2017-11-22T10:17:01.483Z,99304.15
2017-11-22T10:19:28.937Z,99293.69
2017-11-22T10:22:01.957Z,99296.10
2017-11-22T10:24:33.304Z,99290.27
2017-11-22T10:27:06.247Z,99288.67
2017-11-22T10:29:39.270Z,99282.81
2017-11-22T10:32:06.752Z,99281.39
2017-11-22T10:34:34.672Z,99279.80
2017-11-22T10:37:02.150Z,99260.14
2017-11-22T10:39:29.631Z,99266.16
2017-11-22T10:41:57.077Z,99258.08
2017-11-22T10:44:24.552Z,99254.48
2017-11-22T10:46:52.057Z,99275.81
2017-11-22T10:49:19.537Z,99251.88
2017-11-22T10:51:47.011Z,99247.66
2017-11-22T10:54:14.479Z,99264.00
2017-11-22T10:56:41.947Z,99254.61
2017-11-22T10:59:09.447Z,99242.42
2017-11-22T11:01:37.115Z,99241.95
2017-11-22T11:04:04.565Z,99248.69
2017-11-22T11:06:32.036Z,99238.14
2017-11-22T11:08:59.508Z,99244.20
2017-11-22T11:11:27.000Z,99232.52
2017-11-22T11:13:54.481Z,99231.55
2017-11-22T11:16:21.930Z,99231.68
2017-11-22T11:18:49.384Z,99226.16
2017-11-22T11:21:17.006Z,99228.42
2017-11-22T11:23:44.463Z,99222.80
2017-11-22T11:26:11.965Z,99224.77
2017-11-22T11:28:39.433Z,99225.33
2017-11-22T11:31:06.931Z,99235.72
2017-11-22T11:33:34.377Z,99220.94
2017-11-22T11:39:06.052Z,99236.91
2017-11-22T11:41:33.531Z,99210.89
2017-11-22T11:44:01.005Z,99217.06
2017-11-22T11:46:28.465Z,99246.53
2017-11-22T11:48:55.925Z,99208.77
2017-11-22T11:51:23.417Z,99200.14
2017-11-22T11:53:50.869Z,99197.77
2017-11-22T11:56:19.279Z,99201.64
2017-11-22T11:58:46.745Z,99197.30
2017-11-22T12:01:14.206Z,99189.66
2017-11-22T12:03:41.660Z,99174.70
2017-11-22T12:06:09.110Z,99187.53
2017-11-22T12:08:36.565Z,99206.84
2017-11-22T12:11:04.037Z,99167.63
2017-11-22T12:13:31.505Z,99164.02
2017-11-22T12:15:58.985Z,99175.28
2017-11-22T12:18:27.576Z,99162.55
2017-11-22T12:21:00.884Z,99162.22
2017-11-22T12:23:28.984Z,99170.19
2017-11-22T12:25:56.446Z,99160.55
2017-11-22T12:28:23.940Z,99152.35
2017-11-22T12:30:53.011Z,99163.20
2017-11-22T12:33:20.455Z,99158.63
2017-11-22T12:35:47.986Z,99148.80
2017-11-22T12:38:16.420Z,99168.80
2017-11-22T12:40:43.872Z,99152.91
2017-11-22T12:43:11.691Z,99147.77
2017-11-22T12:45:39.164Z,99149.86
2017-11-22T12:48:06.706Z,99161.58
2017-11-22T12:50:35.363Z,99149.17
2017-11-22T12:53:02.814Z,99149.06
2017-11-22T12:55:30.304Z,99158.26
2017-11-22T12:58:00.700Z,99169.98
2017-11-22T13:00:28.300Z,99192.53
2017-11-22T13:02:55.785Z,99167.31
2017-11-22T13:05:23.291Z,99162.15
2017-11-22T13:07:50.790Z,99157.87
2017-11-22T13:10:20.093Z,99171.66
2017-11-22T13:12:48.526Z,99157.19
2017-11-22T13:15:16.214Z,99162.23
2017-11-22T13:17:43.683Z,99155.99
2017-11-22T13:20:11.172Z,99153.97
2017-11-22T13:22:38.648Z,99168.23
2017-11-22T13:25:06.174Z,99158.02
2017-11-22T13:27:33.668Z,99178.39
2017-11-22T13:30:01.138Z,99153.30
2017-11-22T13:32:34.451Z,99154.44
2017-11-22T13:35:01.920Z,99163.37
2017-11-22T13:37:29.414Z,99143.16
2017-11-22T13:39:56.885Z,99160.59
2017-11-22T13:42:24.361Z,99148.02
2017-11-22T13:44:51.853Z,99151.83
2017-11-22T13:47:19.340Z,99139.07
2017-11-22T13:49:46.815Z,99134.05
2017-11-22T13:52:14.971Z,99150.02
2017-11-22T13:54:43.073Z,99168.13
2017-11-22T13:57:10.543Z,99148.50
2017-11-22T13:59:38.034Z,99182.62
2017-11-22T14:02:05.490Z,99149.41
2017-11-22T14:04:35.679Z,99159.40
2017-11-22T14:07:03.174Z,99166.56
2017-11-22T14:09:30.684Z,99164.28
2017-11-22T14:11:58.185Z,99133.70
2017-11-22T14:14:25.639Z,99140.81
2017-11-22T14:16:53.134Z,99143.35
2017-11-22T14:19:20.763Z,99154.77
2017-11-22T14:21:48.293Z,99168.98
2017-11-22T14:24:15.757Z,99136.00
2017-11-22T14:26:43.242Z,99151.05
2017-11-22T14:29:10.730Z,99156.17
2017-11-22T14:31:38.293Z,99141.61
2017-11-22T14:34:05.753Z,99137.94
2017-11-22T14:36:35.137Z,99146.57
2017-11-22T14:39:02.624Z,99152.51
2017-11-22T14:41:30.101Z,99163.70
2017-11-22T14:43:57.593Z,99141.47
2017-11-22T14:46:25.092Z,99159.64
2017-11-22T14:48:53.233Z,99170.17
2017-11-22T14:51:20.680Z,99172.07
2017-11-22T14:53:48.173Z,99161.80
2017-11-22T14:56:17.069Z,99158.92
2017-11-22T14:58:44.524Z,99167.00
2017-11-22T15:01:11.982Z,99181.53
2017-11-22T15:03:39.437Z,99164.84
2017-11-22T15:06:06.917Z,99177.27
2017-11-22T15:08:34.393Z,99184.16
2017-11-22T15:11:01.846Z,99190.08
2017-11-22T15:13:29.367Z,99193.23
2017-11-22T15:15:56.867Z,99198.94
2017-11-22T15:18:25.280Z,99188.30
2017-11-22T15:20:52.792Z,99206.33
2017-11-22T15:23:20.318Z,99203.06
2017-11-22T15:25:47.774Z,99215.13
2017-11-22T15:28:15.478Z,99200.33
2017-11-22T15:30:43.003Z,99216.67
2017-11-22T15:33:10.484Z,99210.88
2017-11-22T15:35:37.999Z,99210.45
2017-11-22T15:38:05.541Z,99209.52
2017-11-22T15:40:34.102Z,99208.33
2017-11-22T15:43:01.567Z,99213.03
2017-11-22T15:45:29.065Z,99211.88
2017-11-22T15:47:56.558Z,99213.16
2017-11-22T15:50:24.048Z,99216.62
2017-11-22T15:52:51.561Z,99214.53
2017-11-22T15:55:19.368Z,99223.41
2017-11-22T15:57:46.860Z,99226.11
2017-11-22T16:00:14.336Z,99227.54
2017-11-22T16:02:41.822Z,99230.81
2017-11-22T16:05:09.320Z,99229.39
2017-11-22T16:07:36.836Z,99228.55
2017-11-22T16:10:04.339Z,99226.22
2017-11-22T16:12:31.853Z,99233.86
2017-11-22T16:14:59.402Z,99241.41
2017-11-22T16:17:26.854Z,99238.93
2017-11-22T16:19:54.349Z,99239.37
2017-11-22T16:22:21.821Z,99256.52
2017-11-22T16:24:49.943Z,99254.25
2017-11-22T16:27:19.079Z,99242.33
2017-11-22T16:29:46.551Z,99251.38
2017-11-22T16:32:14.105Z,99254.42
2017-11-22T16:34:41.603Z,99248.86
2017-11-22T16:37:09.056Z,99247.14
2017-11-22T16:39:36.534Z,99241.95
2017-11-22T16:42:03.997Z,99252.27
2017-11-22T16:44:31.566Z,99242.50
2017-11-22T16:46:59.058Z,99245.09
2017-11-22T16:49:26.542Z,99258.65
2017-11-22T16:51:54.096Z,99247.66
2017-11-22T16:54:21.585Z,99254.30
2017-11-22T16:56:49.038Z,99251.86
2017-11-22T16:59:16.524Z,99253.64
2017-11-22T17:01:43.972Z,99258.59
2017-11-22T17:04:11.500Z,99252.95
2017-11-22T17:06:38.968Z,99247.47
2017-11-22T17:09:06.526Z,99251.68
2017-11-22T17:14:07.885Z,99248.62
2017-11-22T17:16:35.375Z,99242.11
2017-11-22T17:19:03.122Z,99254.69
2017-11-22T17:21:30.601Z,99246.30
2017-11-22T17:23:58.123Z,99252.31
2017-11-22T17:26:25.597Z,99253.43
2017-11-22T17:28:53.146Z,99256.16
2017-11-22T17:31:20.649Z,99247.43
2017-11-22T17:33:48.125Z,99254.03
2017-11-22T17:36:15.620Z,99255.77
2017-11-22T17:38:43.085Z,99256.80
2017-11-22T17:41:10.577Z,99250.78
2017-11-22T17:43:38.084Z,99254.55
2017-11-22T17:46:05.573Z,99247.61
2017-11-22T17:48:33.055Z,99246.34
2017-11-22T17:51:00.529Z,99252.32
2017-11-22T17:53:28.073Z,99244.20
2017-11-22T17:55:55.552Z,99246.05
2017-11-22T17:58:23.042Z,99245.75
2017-11-22T18:00:50.517Z,99248.30
2017-11-22T18:03:18.020Z,99252.86
2017-11-22T18:05:45.562Z,99251.69
2017-11-22T18:08:13.067Z,99244.05
2017-11-22T18:10:40.569Z,99243.90
2017-11-22T18:13:08.062Z,99246.72
2017-11-22T18:15:35.568Z,99251.35
2017-11-22T18:18:03.072Z,99246.24
2017-11-22T18:20:30.584Z,99252.64
2017-11-22T18:22:58.042Z,99251.55
2017-11-22T18:25:26.035Z,99255.70
2017-11-22T18:27:53.648Z,99258.96
2017-11-22T18:32:54.927Z,99251.20
2017-11-22T18:35:22.399Z,99250.20
2017-11-22T18:37:50.589Z,99240.95
2017-11-22T18:40:18.160Z,99242.08
2017-11-22T18:42:47.788Z,99237.58
2017-11-22T18:45:16.473Z,99238.22
2017-11-22T18:47:44.032Z,99234.84
2017-11-22T18:50:11.584Z,99240.11
2017-11-22T18:52:39.208Z,99242.55
2017-11-22T18:55:06.803Z,99245.86
2017-11-22T18:57:34.331Z,99249.03
2017-11-22T19:00:01.928Z,99243.23
2017-11-22T19:02:29.507Z,99244.20
2017-11-22T19:04:57.134Z,99256.52
2017-11-22T19:07:24.680Z,99248.62
2017-11-22T19:09:52.196Z,99248.91
2017-11-22T19:12:19.698Z,99246.42
2017-11-22T19:14:47.159Z,99246.77
2017-11-22T19:17:14.799Z,99246.06
2017-11-22T19:19:42.288Z,99249.38
2017-11-22T19:22:09.753Z,99251.33
2017-11-22T19:24:37.306Z,99254.33
2017-11-22T19:27:05.685Z,99255.23
2017-11-22T19:29:33.164Z,99257.70
2017-11-22T19:32:00.652Z,99261.06
2017-11-22T19:34:28.209Z,99262.66
2017-11-22T19:36:55.721Z,99271.86
2017-11-22T19:39:23.270Z,99272.09
2017-11-22T19:41:50.735Z,99273.10
2017-11-22T19:44:18.608Z,99268.17
2017-11-22T19:46:46.096Z,99271.16
2017-11-22T19:49:13.582Z,99270.83
2017-11-22T19:51:41.081Z,99274.78
2017-11-22T19:54:08.564Z,99274.45
2017-11-22T19:56:37.356Z,99274.95
2017-11-22T19:59:04.873Z,99270.80
2017-11-22T20:01:32.417Z,99272.11
2017-11-22T20:03:59.890Z,99276.41
2017-11-22T20:06:30.628Z,99279.51
2017-11-22T20:09:02.919Z,99284.27
2017-11-22T20:11:30.408Z,99281.88
2017-11-22T20:13:57.909Z,99294.32
2017-11-22T20:16:25.394Z,99293.58
2017-11-22T20:18:52.920Z,99294.81
2017-11-22T20:21:20.406Z,99298.22
2017-11-22T20:23:47.888Z,99300.77
2017-11-22T20:26:16.233Z,99297.83
2017-11-22T20:28:44.037Z,99300.13
2017-11-22T20:31:11.512Z,99296.05
2017-11-22T20:33:38.988Z,99300.00
2017-11-22T20:36:06.489Z,99302.64
2017-11-22T20:38:36.110Z,99309.09
2017-11-22T20:41:03.597Z,99306.66
2017-11-22T20:43:31.126Z,99303.42
2017-11-22T20:45:58.685Z,99305.24
2017-11-22T20:48:28.829Z,99295.55
2017-11-22T20:50:56.320Z,99308.34
2017-11-22T20:53:23.918Z,99306.25
2017-11-22T20:55:51.626Z,99305.80
2017-11-22T20:58:19.258Z,99296.08
2017-11-22T21:00:46.761Z,99300.36
2017-11-22T21:03:18.376Z,99307.17
2017-11-22T21:05:45.841Z,99309.35
2017-11-22T21:08:13.335Z,99311.98
2017-11-22T21:10:40.825Z,99317.09
2017-11-22T21:13:08.337Z,99318.82
2017-11-22T21:15:35.821Z,99324.78
2017-11-22T21:18:03.394Z,99329.00
2017-11-22T21:20:30.875Z,99332.77
2017-11-22T21:22:58.391Z,99328.11
2017-11-22T21:25:25.889Z,99336.20
2017-11-22T21:27:53.345Z,99340.02
2017-11-22T21:30:20.879Z,99339.21
2017-11-22T21:32:48.421Z,99347.75
2017-11-22T21:35:15.877Z,99341.86
2017-11-22T21:37:43.445Z,99346.97
2017-11-22T21:40:10.898Z,99340.17
2017-11-22T21:42:38.368Z,99343.16
2017-11-22T21:45:06.272Z,99349.12
2017-11-22T21:47:33.726Z,99347.86
2017-11-22T21:50:01.204Z,99351.28
2017-11-22T21:52:28.696Z,99343.66
2017-11-22T21:54:56.179Z,99343.26
2017-11-22T21:57:26.605Z,99340.72
2017-11-22T21:59:54.102Z,99331.86
2017-11-22T22:02:21.583Z,99334.84
2017-11-22T22:04:49.079Z,99332.30
2017-11-22T22:07:16.566Z,99334.00
2017-11-22T22:09:44.044Z,99336.95
2017-11-22T22:12:11.535Z,99339.50
2017-11-22T22:14:40.033Z,99346.70
2017-11-22T22:17:13.135Z,99346.70
2017-11-22T22:19:40.597Z,99353.87
2017-11-22T22:22:08.044Z,99355.55
2017-11-22T22:24:35.508Z,99357.66
2017-11-22T22:27:02.965Z,99355.56
2017-11-22T22:29:30.448Z,99353.88
2017-11-22T22:31:57.895Z,99350.50
2017-11-22T22:34:25.360Z,99351.34
2017-11-22T22:36:52.842Z,99352.61
2017-11-22T22:39:20.317Z,99356.39
2017-11-22T22:41:47.820Z,99369.11
2017-11-22T22:44:17.161Z,99361.06
2017-11-22T22:46:44.939Z,99355.97
2017-11-22T22:49:12.487Z,99352.99
2017-11-22T22:51:40.015Z,99353.42
2017-11-22T22:54:07.535Z,99350.88
2017-11-22T22:56:36.979Z,99346.64
2017-11-22T22:59:04.584Z,99343.69
2017-11-22T23:01:32.079Z,99338.59
2017-11-22T23:03:59.560Z,99336.08
2017-11-22T23:06:27.327Z,99343.25
2017-11-22T23:08:54.827Z,99340.70
2017-11-22T23:11:22.296Z,99343.25
2017-11-22T23:13:49.774Z,99339.85
2017-11-22T23:16:18.347Z,99342.42
2017-11-22T23:18:45.990Z,99338.17
2017-11-22T23:21:13.456Z,99334.36
2017-11-22T23:23:40.926Z,99332.26
2017-11-22T23:26:08.448Z,99329.31
2017-11-22T23:28:36.829Z,99335.64
2017-11-22T23:31:05.099Z,99325.50
2017-11-22T23:33:32.560Z,99327.16
2017-11-22T23:36:00.055Z,99326.75
2017-11-22T23:38:27.529Z,99325.47
2017-11-22T23:40:55.032Z,99330.52
2017-11-22T23:43:22.521Z,99325.87
2017-11-22T23:45:49.992Z,99316.57
2017-11-22T23:48:17.756Z,99320.37
2017-11-22T23:50:45.329Z,99324.57
2017-11-22T23:53:12.798Z,99324.13
2017-11-22T23:55:40.254Z,99327.08
2017-11-22T23:58:07.762Z,99330.87
